SWA4286 TJSJ-KMCO
Flight info
| Callsign | SWA4286 |
|---|---|
| Flight time | 2h 45m |
| Altitude | 34000 |
| Route | ACONY3 SAPPO Y280 OCTAL RIDES2 |
| Aircraft | B737/M-SDE2E3FGHIRWXY/LB1 |
Departure
| Time | 2026-05-06 23:36 |
|---|---|
| Airport | Luis Munoz Marin International Airport (TJSJ) |
Arrival
| Time | 2026-05-07 02:21 |
|---|---|
| Airport | Orlando International Airport (KMCO) |
| Time | Latitude | Longitude | Altitude | Speed | Heading |
|---|---|---|---|---|---|
| 2026-05-06 23:09 | 18.43706 | -66.00221 | 16 ft | 0 kts | 182° |
| 2026-05-06 23:23 | 18.43707 | -66.00221 | 16 ft | 1 kts | 182° |
| 2026-05-06 23:23 | 18.43725 | -66.00221 | 18 ft | 3 kts | 181° |
| 2026-05-06 23:24 | 18.43744 | -66.00221 | 17 ft | 2 kts | 169° |
| 2026-05-06 23:24 | 18.43753 | -66.00224 | 17 ft | 1 kts | 125° |
| 2026-05-06 23:24 | 18.43756 | -66.00233 | 17 ft | 1 kts | 88° |
| 2026-05-06 23:24 | 18.43755 | -66.00241 | 19 ft | 1 kts | 82° |
| 2026-05-06 23:25 | 18.43754 | -66.00250 | 18 ft | 1 kts | 80° |
| 2026-05-06 23:28 | 18.43756 | -66.00239 | 19 ft | 3 kts | 80° |
| 2026-05-06 23:28 | 18.43759 | -66.00220 | 19 ft | 4 kts | 80° |
| 2026-05-06 23:28 | 18.43767 | -66.00170 | 16 ft | 7 kts | 79° |
| 2026-05-06 23:29 | 18.43781 | -66.00120 | 18 ft | 7 kts | 70° |
| 2026-05-06 23:29 | 18.43797 | -66.00075 | 17 ft | 6 kts | 68° |
| 2026-05-06 23:29 | 18.43793 | -66.00029 | 16 ft | 9 kts | 132° |
| 2026-05-06 23:29 | 18.43708 | -65.99990 | 16 ft | 15 kts | 158° |
| 2026-05-06 23:30 | 18.43614 | -65.99976 | 18 ft | 13 kts | 180° |
| 2026-05-06 23:30 | 18.43562 | -66.00033 | 16 ft | 14 kts | 270° |
| 2026-05-06 23:30 | 18.43556 | -66.00139 | 16 ft | 15 kts | 261° |
| 2026-05-06 23:30 | 18.43518 | -66.00227 | 16 ft | 13 kts | 201° |
| 2026-05-06 23:31 | 18.43464 | -66.00284 | 16 ft | 13 kts | 271° |
| 2026-05-06 23:31 | 18.43465 | -66.00398 | 16 ft | 18 kts | 270° |
| 2026-05-06 23:31 | 18.43465 | -66.00526 | 16 ft | 17 kts | 270° |
| 2026-05-06 23:31 | 18.43465 | -66.00651 | 16 ft | 17 kts | 270° |
| 2026-05-06 23:32 | 18.43465 | -66.00770 | 16 ft | 16 kts | 270° |
| 2026-05-06 23:32 | 18.43466 | -66.00889 | 16 ft | 17 kts | 270° |
| 2026-05-06 23:32 | 18.43467 | -66.01031 | 16 ft | 20 kts | 270° |
| 2026-05-06 23:32 | 18.43467 | -66.01178 | 16 ft | 20 kts | 270° |
| 2026-05-06 23:33 | 18.43467 | -66.01305 | 16 ft | 16 kts | 270° |
| 2026-05-06 23:33 | 18.43472 | -66.01411 | 16 ft | 13 kts | 292° |
| 2026-05-06 23:33 | 18.43551 | -66.01437 | 16 ft | 13 kts | 1° |
| 2026-05-06 23:33 | 18.43637 | -66.01436 | 16 ft | 12 kts | 0° |
| 2026-05-06 23:34 | 18.43715 | -66.01436 | 16 ft | 8 kts | 359° |
| 2026-05-06 23:34 | 18.43758 | -66.01457 | 16 ft | 7 kts | 292° |
| 2026-05-06 23:34 | 18.43763 | -66.01530 | 16 ft | 11 kts | 298° |
| 2026-05-06 23:34 | 18.43825 | -66.01571 | 16 ft | 10 kts | 3° |
| 2026-05-06 23:35 | 18.43866 | -66.01514 | 18 ft | 10 kts | 67° |
| 2026-05-06 23:35 | 18.43925 | -66.01366 | 17 ft | 51 kts | 67° |
| 2026-05-06 23:35 | 18.44161 | -66.00783 | 16 ft | 120 kts | 67° |
| 2026-05-06 23:35 | 18.44566 | -65.99793 | 78 ft | 168 kts | 68° |
| 2026-05-06 23:36 | 18.45025 | -65.98657 | 751 ft | 170 kts | 68° |
| 2026-05-06 23:36 | 18.45847 | -65.97772 | 1373 ft | 181 kts | 22° |
| 2026-05-06 23:36 | 18.47175 | -65.97793 | 1758 ft | 210 kts | 343° |
| 2026-05-06 23:36 | 18.48623 | -65.98370 | 1990 ft | 236 kts | 339° |
| 2026-05-06 23:37 | 18.50174 | -65.99080 | 2429 ft | 248 kts | 336° |
| 2026-05-06 23:37 | 18.51664 | -66.00011 | 3037 ft | 253 kts | 317° |
| 2026-05-06 23:37 | 18.52900 | -66.01382 | 3558 ft | 268 kts | 311° |
| 2026-05-06 23:37 | 18.54160 | -66.02885 | 4226 ft | 275 kts | 310° |
| 2026-05-06 23:38 | 18.55419 | -66.04396 | 5142 ft | 273 kts | 310° |
| 2026-05-06 23:38 | 18.56680 | -66.05896 | 6013 ft | 274 kts | 311° |
| 2026-05-06 23:38 | 18.57960 | -66.07407 | 6813 ft | 278 kts | 311° |
| 2026-05-06 23:38 | 18.59260 | -66.08932 | 7612 ft | 282 kts | 312° |
| 2026-05-06 23:39 | 18.60583 | -66.10475 | 8415 ft | 286 kts | 312° |
| 2026-05-06 23:39 | 18.61928 | -66.12039 | 9282 ft | 289 kts | 312° |
| 2026-05-06 23:39 | 18.63290 | -66.13619 | 10147 ft | 293 kts | 312° |
| 2026-05-06 23:39 | 18.64703 | -66.15256 | 10577 ft | 314 kts | 312° |
| 2026-05-06 23:40 | 18.66234 | -66.17028 | 10762 ft | 340 kts | 312° |
| 2026-05-06 23:40 | 18.67879 | -66.18932 | 11026 ft | 360 kts | 312° |
| 2026-05-06 23:40 | 18.69590 | -66.20911 | 11577 ft | 369 kts | 312° |
| 2026-05-06 23:40 | 18.71325 | -66.22918 | 12380 ft | 371 kts | 312° |
| 2026-05-06 23:41 | 18.73068 | -66.24936 | 13108 ft | 375 kts | 312° |
| 2026-05-06 23:41 | 18.74838 | -66.26985 | 13813 ft | 380 kts | 312° |
| 2026-05-06 23:41 | 18.76625 | -66.29054 | 14548 ft | 380 kts | 312° |
| 2026-05-06 23:41 | 18.78403 | -66.31113 | 15353 ft | 378 kts | 312° |
| 2026-05-06 23:42 | 18.80138 | -66.33123 | 16290 ft | 374 kts | 313° |
| 2026-05-06 23:42 | 18.81895 | -66.35160 | 17033 ft | 376 kts | 312° |
| 2026-05-06 23:42 | 18.83674 | -66.37222 | 17630 ft | 381 kts | 313° |
| 2026-05-06 23:42 | 18.85463 | -66.39298 | 18329 ft | 384 kts | 313° |
| 2026-05-06 23:43 | 18.87274 | -66.41399 | 18826 ft | 391 kts | 312° |
| 2026-05-06 23:43 | 18.89111 | -66.43532 | 19414 ft | 392 kts | 313° |
| 2026-05-06 23:43 | 18.90951 | -66.45668 | 19971 ft | 396 kts | 312° |
| 2026-05-06 23:43 | 18.92820 | -66.47828 | 20450 ft | 401 kts | 313° |
| 2026-05-06 23:44 | 18.94792 | -66.49928 | 20966 ft | 404 kts | 316° |
| 2026-05-06 23:44 | 18.96843 | -66.51991 | 21397 ft | 410 kts | 316° |
| 2026-05-06 23:44 | 18.98927 | -66.54060 | 21910 ft | 413 kts | 316° |
| 2026-05-06 23:44 | 19.01022 | -66.56151 | 22392 ft | 416 kts | 316° |
| 2026-05-06 23:45 | 19.03124 | -66.58269 | 22888 ft | 419 kts | 316° |
| 2026-05-06 23:45 | 19.05242 | -66.60416 | 23286 ft | 424 kts | 316° |
| 2026-05-06 23:45 | 19.07371 | -66.62583 | 23730 ft | 426 kts | 315° |
| 2026-05-06 23:45 | 19.09396 | -66.64888 | 24098 ft | 429 kts | 310° |
| 2026-05-06 23:46 | 19.11316 | -66.67313 | 24492 ft | 431 kts | 309° |
| 2026-05-06 23:46 | 19.13208 | -66.69783 | 24853 ft | 434 kts | 309° |
| 2026-05-06 23:46 | 19.15102 | -66.72274 | 25225 ft | 436 kts | 309° |
| 2026-05-06 23:46 | 19.17007 | -66.74773 | 25606 ft | 438 kts | 309° |
| 2026-05-06 23:47 | 19.18932 | -66.77283 | 25967 ft | 440 kts | 309° |
| 2026-05-06 23:47 | 19.20871 | -66.79797 | 26333 ft | 442 kts | 309° |
| 2026-05-06 23:47 | 19.22823 | -66.82319 | 26680 ft | 444 kts | 310° |
| 2026-05-06 23:47 | 19.24790 | -66.84854 | 27023 ft | 446 kts | 310° |
| 2026-05-06 23:48 | 19.26765 | -66.87397 | 27376 ft | 448 kts | 310° |
| 2026-05-06 23:48 | 19.28741 | -66.89941 | 27791 ft | 448 kts | 310° |
| 2026-05-06 23:48 | 19.30720 | -66.92490 | 28206 ft | 448 kts | 310° |
| 2026-05-06 23:48 | 19.32701 | -66.95042 | 28511 ft | 450 kts | 310° |
| 2026-05-06 23:49 | 19.34690 | -66.97607 | 28806 ft | 452 kts | 310° |
| 2026-05-06 23:49 | 19.36686 | -67.00181 | 29208 ft | 451 kts | 310° |
| 2026-05-06 23:49 | 19.38669 | -67.02741 | 29730 ft | 448 kts | 311° |
| 2026-05-06 23:49 | 19.40639 | -67.05285 | 30251 ft | 446 kts | 311° |
| 2026-05-06 23:50 | 19.42603 | -67.07823 | 30646 ft | 445 kts | 311° |
| 2026-05-06 23:50 | 19.46497 | -67.12856 | 31388 ft | 444 kts | 310° |
| 2026-05-06 23:50 | 19.48453 | -67.15387 | 31805 ft | 443 kts | 310° |
| 2026-05-06 23:51 | 19.50429 | -67.17943 | 32250 ft | 442 kts | 310° |
| 2026-05-06 23:51 | 19.52349 | -67.20430 | 32655 ft | 441 kts | 310° |
| 2026-05-06 23:51 | 19.54291 | -67.22944 | 33064 ft | 441 kts | 311° |
| 2026-05-06 23:51 | 19.56229 | -67.25455 | 33499 ft | 439 kts | 311° |
| 2026-05-06 23:52 | 19.58159 | -67.27957 | 33926 ft | 438 kts | 311° |
| 2026-05-06 23:52 | 19.60095 | -67.30467 | 34086 ft | 442 kts | 311° |
| 2026-05-06 23:52 | 19.64001 | -67.35534 | 34090 ft | 444 kts | 311° |
| 2026-05-06 23:53 | 19.67873 | -67.40564 | 34075 ft | 438 kts | 311° |
| 2026-05-06 23:53 | 19.71721 | -67.45565 | 34094 ft | 437 kts | 311° |
| 2026-05-06 23:54 | 19.75569 | -67.50570 | 34093 ft | 438 kts | 311° |
| 2026-05-06 23:54 | 19.79421 | -67.55584 | 34084 ft | 438 kts | 311° |
| 2026-05-06 23:55 | 19.83269 | -67.60598 | 34089 ft | 438 kts | 311° |
| 2026-05-06 23:55 | 19.87122 | -67.65623 | 34087 ft | 439 kts | 311° |
| 2026-05-06 23:56 | 19.90972 | -67.70648 | 34092 ft | 439 kts | 311° |
| 2026-05-06 23:56 | 19.94828 | -67.75687 | 34090 ft | 439 kts | 311° |
| 2026-05-06 23:57 | 19.98684 | -67.80727 | 34090 ft | 439 kts | 311° |
| 2026-05-06 23:57 | 20.02539 | -67.85772 | 34090 ft | 440 kts | 311° |
| 2026-05-06 23:58 | 20.06394 | -67.90822 | 34092 ft | 440 kts | 311° |
| 2026-05-06 23:58 | 20.10250 | -67.95876 | 34090 ft | 440 kts | 311° |
| 2026-05-06 23:59 | 20.14103 | -68.00932 | 34089 ft | 440 kts | 311° |
| 2026-05-06 23:59 | 20.17955 | -68.05990 | 34090 ft | 440 kts | 311° |
| 2026-05-07 00:00 | 20.21807 | -68.11053 | 34093 ft | 440 kts | 311° |
| 2026-05-07 00:00 | 20.25002 | -68.15256 | 34092 ft | 440 kts | 311° |
| 2026-05-07 00:01 | 20.29497 | -68.21174 | 34081 ft | 439 kts | 312° |
| 2026-05-07 00:01 | 20.33315 | -68.26206 | 34091 ft | 439 kts | 312° |
| 2026-05-07 00:02 | 20.37148 | -68.31262 | 34093 ft | 439 kts | 312° |
| 2026-05-07 00:02 | 20.40978 | -68.36319 | 34097 ft | 438 kts | 312° |
| 2026-05-07 00:03 | 20.44727 | -68.41455 | 34086 ft | 440 kts | 307° |
| 2026-05-07 00:03 | 20.48004 | -68.46972 | 34088 ft | 441 kts | 305° |
| 2026-05-07 00:04 | 20.51205 | -68.52550 | 34093 ft | 441 kts | 305° |
| 2026-05-07 00:04 | 20.54429 | -68.58104 | 34087 ft | 440 kts | 305° |
| 2026-05-07 00:05 | 20.57672 | -68.63637 | 34091 ft | 440 kts | 305° |
| 2026-05-07 00:05 | 20.60921 | -68.69170 | 34090 ft | 440 kts | 305° |
| 2026-05-07 00:06 | 20.64167 | -68.74704 | 34093 ft | 440 kts | 305° |
| 2026-05-07 00:06 | 20.66861 | -68.79302 | 34093 ft | 440 kts | 305° |
| 2026-05-07 00:07 | 20.70102 | -68.84841 | 34090 ft | 440 kts | 305° |
| 2026-05-07 00:07 | 20.73340 | -68.90379 | 34090 ft | 439 kts | 305° |
| 2026-05-07 00:08 | 20.76574 | -68.95915 | 34091 ft | 439 kts | 305° |
| 2026-05-07 00:08 | 20.79806 | -69.01455 | 34098 ft | 439 kts | 305° |
| 2026-05-07 00:09 | 20.83032 | -69.06989 | 34090 ft | 439 kts | 305° |
| 2026-05-07 00:09 | 20.86256 | -69.12525 | 34089 ft | 438 kts | 305° |
| 2026-05-07 00:10 | 20.89478 | -69.18062 | 34092 ft | 438 kts | 305° |
| 2026-05-07 00:10 | 20.92692 | -69.23590 | 34092 ft | 437 kts | 305° |
| 2026-05-07 00:11 | 20.95897 | -69.29109 | 34088 ft | 436 kts | 305° |
| 2026-05-07 00:11 | 20.99072 | -69.34582 | 34088 ft | 436 kts | 305° |
| 2026-05-07 00:12 | 21.02265 | -69.40091 | 34089 ft | 435 kts | 305° |
| 2026-05-07 00:12 | 21.05450 | -69.45593 | 34089 ft | 435 kts | 305° |
| 2026-05-07 00:13 | 21.08634 | -69.51097 | 34090 ft | 434 kts | 305° |
| 2026-05-07 00:13 | 21.11810 | -69.56593 | 34092 ft | 434 kts | 306° |
| 2026-05-07 00:14 | 21.14978 | -69.62083 | 34085 ft | 433 kts | 306° |
| 2026-05-07 00:14 | 21.18144 | -69.67574 | 34084 ft | 433 kts | 306° |
| 2026-05-07 00:15 | 21.21301 | -69.73056 | 34095 ft | 432 kts | 306° |
| 2026-05-07 00:15 | 21.24454 | -69.78533 | 34083 ft | 431 kts | 306° |
| 2026-05-07 00:16 | 21.27598 | -69.84000 | 34082 ft | 430 kts | 306° |
| 2026-05-07 00:16 | 21.30736 | -69.89459 | 34084 ft | 429 kts | 306° |
| 2026-05-07 00:17 | 21.33862 | -69.94908 | 34083 ft | 429 kts | 306° |
| 2026-05-07 00:17 | 21.36981 | -70.00351 | 34090 ft | 428 kts | 306° |
| 2026-05-07 00:18 | 21.40094 | -70.05788 | 34088 ft | 427 kts | 306° |
| 2026-05-07 00:18 | 21.43203 | -70.11223 | 34087 ft | 427 kts | 306° |
| 2026-05-07 00:19 | 21.46290 | -70.16623 | 34087 ft | 427 kts | 306° |
| 2026-05-07 00:19 | 21.49393 | -70.22059 | 34070 ft | 427 kts | 306° |
| 2026-05-07 00:20 | 21.52498 | -70.27502 | 34087 ft | 427 kts | 306° |
| 2026-05-07 00:20 | 21.55599 | -70.32944 | 34088 ft | 428 kts | 306° |
| 2026-05-07 00:21 | 21.58707 | -70.38403 | 34098 ft | 428 kts | 306° |
| 2026-05-07 00:21 | 21.61816 | -70.43870 | 34086 ft | 429 kts | 306° |
| 2026-05-07 00:22 | 21.64924 | -70.49342 | 34081 ft | 429 kts | 306° |
| 2026-05-07 00:22 | 21.68031 | -70.54816 | 34066 ft | 429 kts | 306° |
| 2026-05-07 00:23 | 21.71139 | -70.60300 | 34083 ft | 429 kts | 306° |
| 2026-05-07 00:23 | 21.74246 | -70.65784 | 34089 ft | 430 kts | 306° |
| 2026-05-07 00:24 | 21.77357 | -70.71283 | 34085 ft | 430 kts | 306° |
| 2026-05-07 00:24 | 21.80470 | -70.76790 | 34084 ft | 431 kts | 306° |
| 2026-05-07 00:25 | 21.83584 | -70.82306 | 34090 ft | 431 kts | 306° |
| 2026-05-07 00:25 | 21.86698 | -70.87827 | 34090 ft | 432 kts | 306° |
| 2026-05-07 00:26 | 21.89810 | -70.93350 | 34092 ft | 431 kts | 306° |
| 2026-05-07 00:26 | 21.92919 | -70.98873 | 34088 ft | 431 kts | 306° |
| 2026-05-07 00:27 | 21.96027 | -71.04401 | 34086 ft | 431 kts | 306° |
| 2026-05-07 00:27 | 21.99135 | -71.09933 | 34098 ft | 431 kts | 306° |
| 2026-05-07 00:28 | 22.02236 | -71.15458 | 34087 ft | 431 kts | 306° |
| 2026-05-07 00:28 | 22.05335 | -71.20987 | 34090 ft | 431 kts | 306° |
| 2026-05-07 00:29 | 22.08429 | -71.26513 | 34087 ft | 430 kts | 306° |
| 2026-05-07 00:30 | 22.14582 | -71.37517 | 34092 ft | 429 kts | 306° |
| 2026-05-07 00:30 | 22.17661 | -71.43032 | 34092 ft | 429 kts | 306° |
| 2026-05-07 00:31 | 22.20738 | -71.48549 | 34090 ft | 429 kts | 306° |
| 2026-05-07 00:31 | 22.23811 | -71.54066 | 34090 ft | 429 kts | 306° |
| 2026-05-07 00:32 | 22.26883 | -71.59587 | 34088 ft | 428 kts | 306° |
| 2026-05-07 00:32 | 22.29947 | -71.65099 | 34091 ft | 428 kts | 306° |
| 2026-05-07 00:33 | 22.33006 | -71.70606 | 34086 ft | 427 kts | 306° |
| 2026-05-07 00:33 | 22.36059 | -71.76108 | 34088 ft | 427 kts | 306° |
| 2026-05-07 00:34 | 22.39110 | -71.81613 | 34088 ft | 427 kts | 306° |
| 2026-05-07 00:34 | 22.42156 | -71.87117 | 34087 ft | 426 kts | 306° |
| 2026-05-07 00:35 | 22.45196 | -71.92613 | 34082 ft | 426 kts | 306° |
| 2026-05-07 00:35 | 22.48230 | -71.98106 | 34092 ft | 425 kts | 306° |
| 2026-05-07 00:36 | 22.51260 | -72.03596 | 34091 ft | 425 kts | 306° |
| 2026-05-07 00:36 | 22.54286 | -72.09084 | 34083 ft | 425 kts | 306° |
| 2026-05-07 00:37 | 22.57306 | -72.14569 | 34080 ft | 424 kts | 306° |
| 2026-05-07 00:37 | 22.60306 | -72.20022 | 34084 ft | 424 kts | 306° |
| 2026-05-07 00:38 | 22.63319 | -72.25505 | 34095 ft | 424 kts | 306° |
| 2026-05-07 00:38 | 22.66334 | -72.30997 | 34093 ft | 424 kts | 306° |
| 2026-05-07 00:39 | 22.69349 | -72.36494 | 34089 ft | 425 kts | 306° |
| 2026-05-07 00:39 | 22.72361 | -72.41993 | 34085 ft | 425 kts | 306° |
| 2026-05-07 00:40 | 22.75380 | -72.47509 | 34082 ft | 425 kts | 306° |
| 2026-05-07 00:40 | 22.78393 | -72.53022 | 34089 ft | 426 kts | 306° |
| 2026-05-07 00:41 | 22.81409 | -72.58545 | 34085 ft | 426 kts | 306° |
| 2026-05-07 00:41 | 22.84426 | -72.64077 | 34079 ft | 426 kts | 305° |
| 2026-05-07 00:42 | 22.87440 | -72.69610 | 34090 ft | 426 kts | 305° |
| 2026-05-07 00:42 | 22.90455 | -72.75149 | 34087 ft | 427 kts | 305° |
| 2026-05-07 00:43 | 22.93469 | -72.80695 | 34083 ft | 427 kts | 305° |
| 2026-05-07 00:43 | 22.96486 | -72.86251 | 34083 ft | 427 kts | 305° |
| 2026-05-07 00:44 | 22.99500 | -72.91805 | 34090 ft | 427 kts | 305° |
| 2026-05-07 00:44 | 23.02497 | -72.97333 | 34073 ft | 428 kts | 304° |
| 2026-05-07 00:45 | 23.05533 | -73.02942 | 34088 ft | 428 kts | 304° |
| 2026-05-07 00:45 | 23.08531 | -73.08485 | 34088 ft | 429 kts | 304° |
| 2026-05-07 00:46 | 23.11548 | -73.14073 | 34085 ft | 429 kts | 304° |
| 2026-05-07 00:46 | 23.14572 | -73.19677 | 34084 ft | 430 kts | 304° |
| 2026-05-07 00:47 | 23.17593 | -73.25285 | 34092 ft | 430 kts | 304° |
| 2026-05-07 00:47 | 23.20611 | -73.30891 | 34076 ft | 430 kts | 304° |
| 2026-05-07 00:48 | 23.23627 | -73.36503 | 34084 ft | 429 kts | 304° |
| 2026-05-07 00:48 | 23.26637 | -73.42106 | 34087 ft | 429 kts | 304° |
| 2026-05-07 00:49 | 23.29646 | -73.47716 | 34087 ft | 429 kts | 304° |
| 2026-05-07 00:49 | 23.32651 | -73.53324 | 34087 ft | 429 kts | 304° |
| 2026-05-07 00:50 | 23.35652 | -73.58931 | 34088 ft | 429 kts | 304° |
| 2026-05-07 00:50 | 23.38651 | -73.64540 | 34087 ft | 429 kts | 304° |
| 2026-05-07 00:51 | 23.41650 | -73.70155 | 34088 ft | 429 kts | 304° |
| 2026-05-07 00:51 | 23.44642 | -73.75764 | 34090 ft | 428 kts | 304° |
| 2026-05-07 00:52 | 23.47633 | -73.81378 | 34084 ft | 428 kts | 304° |
| 2026-05-07 00:52 | 23.50623 | -73.86995 | 34086 ft | 428 kts | 304° |
| 2026-05-07 00:53 | 23.53607 | -73.92611 | 34087 ft | 428 kts | 304° |
| 2026-05-07 00:53 | 23.56593 | -73.98232 | 34092 ft | 428 kts | 304° |
| 2026-05-07 00:54 | 23.59574 | -74.03851 | 34082 ft | 428 kts | 304° |
| 2026-05-07 00:54 | 23.62550 | -74.09467 | 34089 ft | 428 kts | 304° |
| 2026-05-07 00:55 | 23.65021 | -74.14134 | 34089 ft | 427 kts | 304° |
| 2026-05-07 00:55 | 23.67990 | -74.19749 | 34087 ft | 427 kts | 304° |
| 2026-05-07 00:56 | 23.70957 | -74.25368 | 34089 ft | 427 kts | 304° |
| 2026-05-07 00:56 | 23.73922 | -74.30990 | 34090 ft | 427 kts | 304° |
| 2026-05-07 00:57 | 23.76882 | -74.36608 | 34076 ft | 427 kts | 304° |
| 2026-05-07 00:57 | 23.79839 | -74.42227 | 34087 ft | 427 kts | 304° |
| 2026-05-07 00:58 | 23.82798 | -74.47854 | 34090 ft | 427 kts | 304° |
| 2026-05-07 00:58 | 23.85731 | -74.53440 | 34090 ft | 427 kts | 304° |
| 2026-05-07 00:59 | 23.90160 | -74.61889 | 34089 ft | 427 kts | 304° |
| 2026-05-07 01:00 | 23.93110 | -74.67522 | 34096 ft | 427 kts | 304° |
| 2026-05-07 01:00 | 23.96059 | -74.73161 | 34096 ft | 427 kts | 304° |
| 2026-05-07 01:01 | 23.99006 | -74.78803 | 34099 ft | 427 kts | 304° |
| 2026-05-07 01:01 | 24.01952 | -74.84450 | 34093 ft | 427 kts | 304° |
| 2026-05-07 01:02 | 24.04895 | -74.90097 | 34088 ft | 427 kts | 303° |
| 2026-05-07 01:02 | 24.07836 | -74.95747 | 34092 ft | 427 kts | 303° |
| 2026-05-07 01:03 | 24.10773 | -75.01396 | 34091 ft | 427 kts | 303° |
| 2026-05-07 01:03 | 24.13710 | -75.07052 | 34079 ft | 427 kts | 303° |
| 2026-05-07 01:04 | 24.16646 | -75.12712 | 34091 ft | 427 kts | 303° |
| 2026-05-07 01:04 | 24.19579 | -75.18372 | 34092 ft | 427 kts | 303° |
| 2026-05-07 01:05 | 24.22511 | -75.24039 | 34088 ft | 427 kts | 303° |
| 2026-05-07 01:05 | 24.25440 | -75.29706 | 34090 ft | 428 kts | 303° |
| 2026-05-07 01:06 | 24.28369 | -75.35377 | 34090 ft | 428 kts | 303° |
| 2026-05-07 01:06 | 24.31295 | -75.41053 | 34098 ft | 428 kts | 303° |
| 2026-05-07 01:07 | 24.34221 | -75.46733 | 34081 ft | 428 kts | 303° |
| 2026-05-07 01:07 | 24.37142 | -75.52411 | 34087 ft | 427 kts | 303° |
| 2026-05-07 01:08 | 24.40061 | -75.58091 | 34090 ft | 427 kts | 303° |
| 2026-05-07 01:08 | 24.42955 | -75.63731 | 34088 ft | 427 kts | 303° |
| 2026-05-07 01:09 | 24.45868 | -75.69413 | 34092 ft | 427 kts | 303° |
| 2026-05-07 01:09 | 24.48778 | -75.75095 | 34096 ft | 427 kts | 303° |
| 2026-05-07 01:10 | 24.51685 | -75.80782 | 34084 ft | 427 kts | 302° |
| 2026-05-07 01:10 | 24.54587 | -75.86462 | 34087 ft | 426 kts | 302° |
| 2026-05-07 01:11 | 24.57486 | -75.92144 | 34093 ft | 426 kts | 302° |
| 2026-05-07 01:11 | 24.60384 | -75.97831 | 34082 ft | 426 kts | 302° |
| 2026-05-07 01:12 | 24.63280 | -76.03520 | 34085 ft | 426 kts | 302° |
| 2026-05-07 01:12 | 24.66170 | -76.09206 | 34087 ft | 426 kts | 302° |
| 2026-05-07 01:13 | 24.69060 | -76.14897 | 34090 ft | 426 kts | 302° |
| 2026-05-07 01:13 | 24.71940 | -76.20578 | 34084 ft | 425 kts | 302° |
| 2026-05-07 01:14 | 24.74814 | -76.26252 | 34092 ft | 424 kts | 302° |
| 2026-05-07 01:14 | 24.77679 | -76.31914 | 34088 ft | 423 kts | 302° |
| 2026-05-07 01:15 | 24.80533 | -76.37563 | 34081 ft | 422 kts | 302° |
| 2026-05-07 01:15 | 24.83381 | -76.43206 | 34087 ft | 421 kts | 302° |
| 2026-05-07 01:16 | 24.86224 | -76.48846 | 34086 ft | 421 kts | 302° |
| 2026-05-07 01:16 | 24.89061 | -76.54480 | 34088 ft | 420 kts | 302° |
| 2026-05-07 01:17 | 24.91892 | -76.60109 | 34085 ft | 420 kts | 302° |
| 2026-05-07 01:17 | 24.94719 | -76.65738 | 34086 ft | 420 kts | 302° |
| 2026-05-07 01:18 | 24.97541 | -76.71363 | 34095 ft | 420 kts | 302° |
| 2026-05-07 01:18 | 25.00363 | -76.76996 | 34093 ft | 420 kts | 302° |
| 2026-05-07 01:19 | 25.03185 | -76.82635 | 34087 ft | 420 kts | 302° |
| 2026-05-07 01:19 | 25.05985 | -76.88237 | 34090 ft | 420 kts | 301° |
| 2026-05-07 01:20 | 25.08804 | -76.93884 | 34086 ft | 420 kts | 301° |
| 2026-05-07 01:20 | 25.11623 | -76.99537 | 34093 ft | 420 kts | 301° |
| 2026-05-07 01:21 | 25.14441 | -77.05195 | 34093 ft | 421 kts | 301° |
| 2026-05-07 01:21 | 25.17254 | -77.10851 | 34091 ft | 421 kts | 301° |
| 2026-05-07 01:22 | 25.20069 | -77.16519 | 34092 ft | 421 kts | 301° |
| 2026-05-07 01:22 | 25.22883 | -77.22190 | 34099 ft | 421 kts | 301° |
| 2026-05-07 01:23 | 25.25696 | -77.27868 | 34103 ft | 421 kts | 301° |
| 2026-05-07 01:23 | 25.28508 | -77.33550 | 34098 ft | 422 kts | 301° |
| 2026-05-07 01:24 | 25.30791 | -77.39536 | 34109 ft | 424 kts | 292° |
| 2026-05-07 01:24 | 25.32753 | -77.45696 | 34092 ft | 425 kts | 292° |
| 2026-05-07 01:25 | 25.34728 | -77.51852 | 34094 ft | 425 kts | 292° |
| 2026-05-07 01:25 | 25.36720 | -77.58003 | 34093 ft | 425 kts | 292° |
| 2026-05-07 01:26 | 25.38715 | -77.64157 | 34097 ft | 425 kts | 292° |
| 2026-05-07 01:26 | 25.40708 | -77.70316 | 34095 ft | 425 kts | 292° |
| 2026-05-07 01:27 | 25.42687 | -77.76442 | 34088 ft | 426 kts | 292° |
| 2026-05-07 01:27 | 25.44406 | -77.82712 | 34116 ft | 427 kts | 288° |
| 2026-05-07 01:28 | 25.45962 | -77.89046 | 34095 ft | 426 kts | 288° |
| 2026-05-07 01:28 | 25.47515 | -77.95378 | 34089 ft | 426 kts | 288° |
| 2026-05-07 01:29 | 25.49082 | -78.01691 | 34083 ft | 425 kts | 288° |
| 2026-05-07 01:29 | 25.50651 | -78.07989 | 34087 ft | 424 kts | 288° |
| 2026-05-07 01:30 | 25.52219 | -78.14284 | 34099 ft | 424 kts | 288° |
| 2026-05-07 01:30 | 25.53784 | -78.20579 | 34098 ft | 424 kts | 288° |
| 2026-05-07 01:31 | 25.55345 | -78.26869 | 34102 ft | 423 kts | 288° |
| 2026-05-07 01:31 | 25.56902 | -78.33158 | 34088 ft | 423 kts | 288° |
| 2026-05-07 01:32 | 25.58456 | -78.39449 | 34087 ft | 423 kts | 288° |
| 2026-05-07 01:32 | 25.60008 | -78.45742 | 34090 ft | 424 kts | 288° |
| 2026-05-07 01:33 | 25.61557 | -78.52035 | 34099 ft | 424 kts | 288° |
| 2026-05-07 01:33 | 25.63104 | -78.58334 | 34095 ft | 424 kts | 288° |
| 2026-05-07 01:34 | 25.64650 | -78.64640 | 34089 ft | 424 kts | 287° |
| 2026-05-07 01:34 | 25.66193 | -78.70946 | 34093 ft | 424 kts | 287° |
| 2026-05-07 01:35 | 25.67732 | -78.77254 | 34092 ft | 424 kts | 287° |
| 2026-05-07 01:35 | 25.69269 | -78.83561 | 34096 ft | 424 kts | 287° |
| 2026-05-07 01:36 | 25.70803 | -78.89871 | 34090 ft | 424 kts | 287° |
| 2026-05-07 01:36 | 25.72334 | -78.96180 | 34089 ft | 424 kts | 287° |
| 2026-05-07 01:37 | 25.73862 | -79.02490 | 34095 ft | 424 kts | 287° |
| 2026-05-07 01:37 | 25.75386 | -79.08797 | 34094 ft | 423 kts | 287° |
| 2026-05-07 01:38 | 25.76897 | -79.15063 | 34101 ft | 423 kts | 287° |
| 2026-05-07 01:38 | 25.78424 | -79.21409 | 34097 ft | 423 kts | 287° |
| 2026-05-07 01:39 | 25.79937 | -79.27707 | 34097 ft | 422 kts | 287° |
| 2026-05-07 01:39 | 25.81446 | -79.34002 | 34090 ft | 422 kts | 287° |
| 2026-05-07 01:40 | 25.82952 | -79.40299 | 34092 ft | 422 kts | 287° |
| 2026-05-07 01:40 | 25.84445 | -79.46552 | 34088 ft | 422 kts | 287° |
| 2026-05-07 01:41 | 25.85943 | -79.52843 | 34087 ft | 421 kts | 287° |
| 2026-05-07 01:41 | 25.87437 | -79.59127 | 34091 ft | 421 kts | 287° |
| 2026-05-07 01:42 | 25.88929 | -79.65416 | 34099 ft | 421 kts | 287° |
| 2026-05-07 01:42 | 25.90418 | -79.71703 | 34084 ft | 421 kts | 286° |
| 2026-05-07 01:43 | 25.91949 | -79.77979 | 34076 ft | 420 kts | 290° |
| 2026-05-07 01:43 | 25.94525 | -79.83767 | 34092 ft | 418 kts | 302° |
| 2026-05-07 01:44 | 25.97114 | -79.88303 | 34079 ft | 418 kts | 302° |
| 2026-05-07 01:44 | 26.00220 | -79.93768 | 34088 ft | 418 kts | 302° |
| 2026-05-07 01:45 | 26.03301 | -79.99253 | 34085 ft | 418 kts | 302° |
| 2026-05-07 01:45 | 26.06374 | -80.04753 | 34081 ft | 418 kts | 302° |
| 2026-05-07 01:46 | 26.09442 | -80.10251 | 34082 ft | 419 kts | 302° |
| 2026-05-07 01:46 | 26.12513 | -80.15757 | 34083 ft | 419 kts | 302° |
| 2026-05-07 01:47 | 26.16193 | -80.20721 | 34102 ft | 420 kts | 321° |
| 2026-05-07 01:47 | 26.21370 | -80.23786 | 34100 ft | 424 kts | 333° |
| 2026-05-07 01:48 | 26.26754 | -80.26483 | 34097 ft | 424 kts | 333° |
| 2026-05-07 01:48 | 26.32122 | -80.29214 | 34090 ft | 424 kts | 332° |
| 2026-05-07 01:49 | 26.37480 | -80.31993 | 34088 ft | 425 kts | 332° |
| 2026-05-07 01:49 | 26.42796 | -80.34770 | 34090 ft | 425 kts | 332° |
| 2026-05-07 01:50 | 26.48181 | -80.37587 | 34091 ft | 425 kts | 332° |
| 2026-05-07 01:50 | 26.53537 | -80.40389 | 34089 ft | 425 kts | 332° |
| 2026-05-07 01:51 | 26.58859 | -80.43176 | 34090 ft | 425 kts | 332° |
| 2026-05-07 01:51 | 26.64260 | -80.45889 | 34081 ft | 427 kts | 335° |
| 2026-05-07 01:51 | 26.67056 | -80.47077 | 33472 ft | 433 kts | 336° |
| 2026-05-07 01:52 | 26.69890 | -80.48212 | 32771 ft | 431 kts | 337° |
| 2026-05-07 01:52 | 26.72720 | -80.49333 | 31942 ft | 432 kts | 337° |
| 2026-05-07 01:52 | 26.75552 | -80.50464 | 31241 ft | 431 kts | 337° |
| 2026-05-07 01:52 | 26.78350 | -80.51597 | 30655 ft | 426 kts | 336° |
| 2026-05-07 01:53 | 26.81126 | -80.52733 | 30021 ft | 423 kts | 336° |
| 2026-05-07 01:53 | 26.83876 | -80.53868 | 29335 ft | 419 kts | 336° |
| 2026-05-07 01:53 | 26.86592 | -80.54992 | 28701 ft | 414 kts | 336° |
| 2026-05-07 01:53 | 26.89274 | -80.56103 | 28075 ft | 409 kts | 336° |
| 2026-05-07 01:54 | 26.91928 | -80.57205 | 27475 ft | 404 kts | 336° |
| 2026-05-07 01:54 | 26.94547 | -80.58292 | 26870 ft | 400 kts | 336° |
| 2026-05-07 01:54 | 26.97141 | -80.59370 | 26270 ft | 396 kts | 336° |
| 2026-05-07 01:54 | 26.99712 | -80.60438 | 25695 ft | 392 kts | 336° |
| 2026-05-07 01:55 | 27.02256 | -80.61495 | 25101 ft | 389 kts | 336° |
| 2026-05-07 01:55 | 27.04784 | -80.62547 | 24498 ft | 387 kts | 336° |
| 2026-05-07 01:55 | 27.07300 | -80.63594 | 23900 ft | 385 kts | 336° |
| 2026-05-07 01:55 | 27.09802 | -80.64634 | 23425 ft | 381 kts | 336° |
| 2026-05-07 01:56 | 27.12241 | -80.65649 | 23258 ft | 366 kts | 336° |
| 2026-05-07 01:56 | 27.14584 | -80.66627 | 23111 ft | 352 kts | 336° |
| 2026-05-07 01:56 | 27.16835 | -80.67568 | 23077 ft | 337 kts | 336° |
| 2026-05-07 01:56 | 27.18981 | -80.68466 | 23059 ft | 321 kts | 335° |
| 2026-05-07 01:57 | 27.21027 | -80.69324 | 23051 ft | 306 kts | 335° |
| 2026-05-07 01:57 | 27.22977 | -80.70141 | 23054 ft | 292 kts | 335° |
| 2026-05-07 01:57 | 27.24831 | -80.70920 | 23051 ft | 278 kts | 335° |
| 2026-05-07 01:57 | 27.26596 | -80.71662 | 23043 ft | 264 kts | 335° |
| 2026-05-07 01:58 | 27.28247 | -80.72356 | 23057 ft | 251 kts | 334° |
| 2026-05-07 01:58 | 27.29857 | -80.73035 | 23056 ft | 245 kts | 334° |
| 2026-05-07 01:58 | 27.31475 | -80.73720 | 23089 ft | 254 kts | 334° |
| 2026-05-07 01:58 | 27.33152 | -80.74429 | 23093 ft | 261 kts | 334° |
| 2026-05-07 01:59 | 27.34861 | -80.75148 | 23078 ft | 262 kts | 335° |
| 2026-05-07 01:59 | 27.36554 | -80.75859 | 23067 ft | 259 kts | 335° |
| 2026-05-07 01:59 | 27.38234 | -80.76573 | 23060 ft | 257 kts | 334° |
| 2026-05-07 01:59 | 27.39892 | -80.77289 | 23061 ft | 254 kts | 334° |
| 2026-05-07 02:00 | 27.41559 | -80.78012 | 22496 ft | 263 kts | 334° |
| 2026-05-07 02:00 | 27.43320 | -80.78781 | 21438 ft | 282 kts | 335° |
| 2026-05-07 02:00 | 27.45230 | -80.79614 | 20248 ft | 308 kts | 336° |
| 2026-05-07 02:00 | 27.47295 | -80.80508 | 19743 ft | 316 kts | 336° |
| 2026-05-07 02:01 | 27.49379 | -80.81407 | 19501 ft | 334 kts | 336° |
| 2026-05-07 02:01 | 27.51647 | -80.82392 | 19266 ft | 363 kts | 336° |
| 2026-05-07 02:01 | 27.54035 | -80.83426 | 18961 ft | 370 kts | 337° |
| 2026-05-07 02:01 | 27.56434 | -80.84478 | 18655 ft | 370 kts | 335° |
| 2026-05-07 02:02 | 27.58706 | -80.85805 | 18360 ft | 367 kts | 328° |
| 2026-05-07 02:02 | 27.60866 | -80.87326 | 18038 ft | 365 kts | 326° |
| 2026-05-07 02:02 | 27.62983 | -80.88889 | 17724 ft | 363 kts | 325° |
| 2026-05-07 02:02 | 27.65093 | -80.90448 | 17423 ft | 361 kts | 326° |
| 2026-05-07 02:03 | 27.67200 | -80.91984 | 17109 ft | 360 kts | 326° |
| 2026-05-07 02:03 | 27.69312 | -80.93504 | 16777 ft | 360 kts | 327° |
| 2026-05-07 02:03 | 27.71421 | -80.95008 | 16486 ft | 358 kts | 327° |
| 2026-05-07 02:03 | 27.73526 | -80.96502 | 16196 ft | 357 kts | 327° |
| 2026-05-07 02:04 | 27.75623 | -80.97986 | 15905 ft | 355 kts | 327° |
| 2026-05-07 02:04 | 27.77709 | -80.99461 | 15630 ft | 353 kts | 327° |
| 2026-05-07 02:04 | 27.79791 | -81.00934 | 15346 ft | 352 kts | 327° |
| 2026-05-07 02:04 | 27.81858 | -81.02397 | 15063 ft | 350 kts | 328° |
| 2026-05-07 02:05 | 27.83920 | -81.03857 | 14781 ft | 349 kts | 328° |
| 2026-05-07 02:05 | 27.85972 | -81.05310 | 14501 ft | 347 kts | 328° |
| 2026-05-07 02:05 | 27.88012 | -81.06757 | 14223 ft | 346 kts | 328° |
| 2026-05-07 02:05 | 27.90047 | -81.08199 | 13936 ft | 345 kts | 328° |
| 2026-05-07 02:06 | 27.92090 | -81.09609 | 13636 ft | 343 kts | 333° |
| 2026-05-07 02:06 | 27.94259 | -81.10714 | 13350 ft | 341 kts | 339° |
| 2026-05-07 02:06 | 27.96468 | -81.11665 | 13073 ft | 339 kts | 340° |
| 2026-05-07 02:06 | 27.98671 | -81.12598 | 12786 ft | 338 kts | 340° |
| 2026-05-07 02:07 | 28.00859 | -81.13554 | 12508 ft | 336 kts | 339° |
| 2026-05-07 02:07 | 28.05184 | -81.15510 | 11982 ft | 334 kts | 339° |
| 2026-05-07 02:07 | 28.07326 | -81.16420 | 11714 ft | 332 kts | 346° |
| 2026-05-07 02:08 | 28.09602 | -81.16799 | 11463 ft | 331 kts | 355° |
| 2026-05-07 02:08 | 28.11892 | -81.17015 | 11199 ft | 330 kts | 355° |
| 2026-05-07 02:08 | 28.14180 | -81.17224 | 10937 ft | 330 kts | 355° |
| 2026-05-07 02:08 | 28.16469 | -81.17439 | 10678 ft | 327 kts | 355° |
| 2026-05-07 02:09 | 28.18702 | -81.17657 | 10405 ft | 318 kts | 355° |
| 2026-05-07 02:09 | 28.20872 | -81.17875 | 10151 ft | 310 kts | 355° |
| 2026-05-07 02:09 | 28.22994 | -81.18092 | 9943 ft | 300 kts | 355° |
| 2026-05-07 02:09 | 28.25017 | -81.18300 | 9798 ft | 288 kts | 355° |
| 2026-05-07 02:10 | 28.27019 | -81.18505 | 9456 ft | 285 kts | 355° |
| 2026-05-07 02:10 | 28.28984 | -81.18613 | 9171 ft | 280 kts | 359° |
| 2026-05-07 02:10 | 28.30917 | -81.18634 | 8951 ft | 276 kts | 0° |
| 2026-05-07 02:10 | 28.32839 | -81.18650 | 8732 ft | 276 kts | 0° |
| 2026-05-07 02:11 | 28.34759 | -81.18675 | 8505 ft | 276 kts | 360° |
| 2026-05-07 02:11 | 28.36661 | -81.18707 | 8282 ft | 271 kts | 0° |
| 2026-05-07 02:11 | 28.38522 | -81.18740 | 8061 ft | 265 kts | 359° |
| 2026-05-07 02:11 | 28.40351 | -81.18766 | 7815 ft | 261 kts | 359° |
| 2026-05-07 02:12 | 28.42154 | -81.18780 | 7575 ft | 257 kts | 360° |
| 2026-05-07 02:12 | 28.43923 | -81.18793 | 7367 ft | 252 kts | 360° |
| 2026-05-07 02:12 | 28.45662 | -81.18806 | 7134 ft | 248 kts | 360° |
| 2026-05-07 02:12 | 28.47387 | -81.18819 | 6851 ft | 248 kts | 360° |
| 2026-05-07 02:13 | 28.49107 | -81.18833 | 6569 ft | 247 kts | 360° |
| 2026-05-07 02:13 | 28.50817 | -81.18847 | 6301 ft | 244 kts | 359° |
| 2026-05-07 02:13 | 28.52500 | -81.18860 | 5911 ft | 242 kts | 359° |
| 2026-05-07 02:13 | 28.54197 | -81.18873 | 5402 ft | 244 kts | 358° |
| 2026-05-07 02:14 | 28.55893 | -81.18887 | 4943 ft | 243 kts | 358° |
| 2026-05-07 02:14 | 28.57576 | -81.18902 | 4437 ft | 241 kts | 358° |
| 2026-05-07 02:14 | 28.59254 | -81.18916 | 3877 ft | 242 kts | 358° |
| 2026-05-07 02:14 | 28.60932 | -81.18932 | 3408 ft | 240 kts | 357° |
| 2026-05-07 02:15 | 28.62580 | -81.19143 | 3090 ft | 239 kts | 339° |
| 2026-05-07 02:15 | 28.63922 | -81.20205 | 3038 ft | 236 kts | 307° |
| 2026-05-07 02:15 | 28.64546 | -81.21860 | 3005 ft | 230 kts | 274° |
| 2026-05-07 02:15 | 28.64508 | -81.23667 | 2995 ft | 221 kts | 263° |
| 2026-05-07 02:16 | 28.64359 | -81.25341 | 2973 ft | 210 kts | 257° |
| 2026-05-07 02:16 | 28.63676 | -81.26752 | 2985 ft | 205 kts | 221° |
| 2026-05-07 02:16 | 28.62521 | -81.27699 | 3003 ft | 205 kts | 214° |
| 2026-05-07 02:16 | 28.61229 | -81.28365 | 2992 ft | 207 kts | 189° |
| 2026-05-07 02:17 | 28.59810 | -81.28443 | 2943 ft | 201 kts | 180° |
| 2026-05-07 02:17 | 28.58440 | -81.28410 | 2727 ft | 193 kts | 179° |
| 2026-05-07 02:17 | 28.57129 | -81.28386 | 2488 ft | 186 kts | 179° |
| 2026-05-07 02:17 | 28.55853 | -81.28371 | 2264 ft | 182 kts | 179° |
| 2026-05-07 02:18 | 28.54590 | -81.28358 | 2040 ft | 182 kts | 179° |
| 2026-05-07 02:18 | 28.53335 | -81.28346 | 1808 ft | 180 kts | 178° |
| 2026-05-07 02:18 | 28.52080 | -81.28334 | 1568 ft | 179 kts | 178° |
| 2026-05-07 02:18 | 28.50872 | -81.28322 | 1335 ft | 167 kts | 178° |
| 2026-05-07 02:19 | 28.49771 | -81.28311 | 1136 ft | 151 kts | 178° |
| 2026-05-07 02:19 | 28.48752 | -81.28301 | 954 ft | 138 kts | 178° |
| 2026-05-07 02:19 | 28.47821 | -81.28292 | 783 ft | 128 kts | 177° |
| 2026-05-07 02:19 | 28.46907 | -81.28287 | 612 ft | 135 kts | 177° |
| 2026-05-07 02:20 | 28.45950 | -81.28286 | 453 ft | 139 kts | 177° |
| 2026-05-07 02:20 | 28.44993 | -81.28271 | 268 ft | 138 kts | 176° |
| 2026-05-07 02:20 | 28.44025 | -81.28258 | 110 ft | 138 kts | 176° |
| 2026-05-07 02:20 | 28.43177 | -81.28246 | 96 ft | 95 kts | 179° |
| 2026-05-07 02:21 | 28.42731 | -81.28241 | 97 ft | 33 kts | 180° |
| 2026-05-07 02:21 | 28.42549 | -81.28303 | 97 ft | 25 kts | 225° |
| 2026-05-07 02:21 | 28.42485 | -81.28474 | 97 ft | 23 kts | 250° |
| 2026-05-07 02:21 | 28.42432 | -81.28644 | 97 ft | 22 kts | 250° |
| 2026-05-07 02:22 | 28.42381 | -81.28809 | 102 ft | 22 kts | 251° |
| 2026-05-07 02:22 | 28.42330 | -81.28974 | 102 ft | 22 kts | 250° |
| 2026-05-07 02:22 | 28.42290 | -81.29156 | 93 ft | 24 kts | 264° |
| 2026-05-07 02:22 | 28.42285 | -81.29341 | 93 ft | 23 kts | 269° |
| 2026-05-07 02:23 | 28.42283 | -81.29518 | 93 ft | 22 kts | 269° |
| 2026-05-07 02:23 | 28.42282 | -81.29685 | 93 ft | 19 kts | 269° |
| 2026-05-07 02:23 | 28.42325 | -81.29792 | 93 ft | 16 kts | 348° |
| 2026-05-07 02:23 | 28.42445 | -81.29795 | 95 ft | 20 kts | 359° |
| 2026-05-07 02:24 | 28.42593 | -81.29796 | 95 ft | 21 kts | 359° |
| 2026-05-07 02:24 | 28.42735 | -81.29797 | 95 ft | 20 kts | 360° |
| 2026-05-07 02:24 | 28.42873 | -81.29799 | 95 ft | 20 kts | 359° |
| 2026-05-07 02:24 | 28.43064 | -81.29801 | 95 ft | 29 kts | 360° |
| 2026-05-07 02:25 | 28.43243 | -81.29803 | 94 ft | 18 kts | 359° |
| 2026-05-07 02:25 | 28.43329 | -81.29821 | 93 ft | 12 kts | 309° |
| 2026-05-07 02:25 | 28.43315 | -81.29913 | 95 ft | 13 kts | 248° |
| 2026-05-07 02:25 | 28.43284 | -81.30007 | 94 ft | 13 kts | 255° |
| 2026-05-07 02:26 | 28.43290 | -81.30104 | 94 ft | 12 kts | 293° |
| 2026-05-07 02:26 | 28.43322 | -81.30161 | 94 ft | 7 kts | 311° |
| 2026-05-07 02:26 | 28.43374 | -81.30171 | 94 ft | 9 kts | 23° |
| 2026-05-07 02:26 | 28.43401 | -81.30135 | 94 ft | 3 kts | 64° |
| 2026-05-07 02:27 | 28.43408 | -81.30120 | 94 ft | 2 kts | 64° |
| 2026-05-07 02:27 | 28.43410 | -81.30114 | 96 ft | 0 kts | 64° |